To NAV CANADA Home Page Login to a new session Search on AWWS site Disclaimer Vers la page française équivalente Tips FAQ What's new on the site To the Forecasts and Observations / NOTAM section To "File a Flight Plan" website Publications and other links Update of the User's profile FIC Telephone Numbers My Weather Data Folder Route Weather Data Regional Weather Data Local Weather Data To the Forecasts and Observations / NOTAM section
Request Generated 11/16/2018 at 01:07:15 UTC . Weather information available at that time is displayed.

METAR/TAF

CHARLOTTETOWN/PE    

METAR CYYG 160100Z 24006KT 15SM SCT028 M07/M11 A3039 RMK SC3 SLP295=
METAR CYYG 160000Z 27004KT 15SM SCT028 M06/M11 A3041 RMK SC4 SLP302=
METAR CYYG 152300Z 27006KT 15SM BKN028 M06/M11 A3041 RMK SC6 SLP304=

TAF CYYG 152343Z 1600/1612 30008KT P6SM BKN030 TEMPO 1600/1602 5SM
-SHSN BKN020
FM160200 25008KT P6SM SCT030 SCT200
BECMG 1602/1604 VRB03KT
RMK NXT FCST BY 160600Z=
Your time UTC time
Weather data provided by Environment Canada and NAV CANADA